Home > Products > Valid Products > MTR

000
SAUS46 KPQR 291553
MTRREO
METAR KREO 291552Z AUTO 00000KT 06/M08 A3031 RMK AO1 SLP268
T00611083





000
SAUS46 KPQR 291453
MTRREO
METAR KREO 291452Z AUTO 15003KT 02/M11 A3032 RMK AO1 SLP273
T00171106 53006





000
SAUS46 KPQR 291353
MTRREO
METAR KREO 291352Z AUTO 00000KT M05/M13 A3030 RMK AO1 SLP274
T10501128





000
SAUS46 KPQR 291353
MTRREO
METAR KREO 291352Z AUTO 00000KT M05/M13 A3030 RMK AO1 SLP274
T10501128





000
SAUS46 KPQR 291258
MTRREO
METAR KREO 291252Z AUTO 09004KT M04/M12 A3030 RMK AO1 SLP267
T10391122





000
SAUS46 KPQR 291258
MTRREO
METAR KREO 291252Z AUTO 09004KT M04/M12 A3030 RMK AO1 SLP267
T10391122





000
SAUS46 KPQR 291153
MTRREO
METAR KREO 291152Z AUTO 00000KT M03/M13 A3030 RMK AO1 SLP264
T10331128 10067 21033 55002





000
SAUS46 KPQR 291153
MTRREO
METAR KREO 291152Z AUTO 00000KT M03/M13 A3030 RMK AO1 SLP264
T10331128 10067 21033 55002





000
SAUS46 KPQR 291053
MTRREO
METAR KREO 291052Z AUTO 14003KT M02/M12 A3030 RMK AO1 SLP261
T10171117





000
SAUS46 KPQR 290953
MTRREO
METAR KREO 290952Z AUTO 14006KT M02/M12 A3030 RMK AO1 SLP264
T10171117





000
SAUS46 KPQR 290853
MTRREO
METAR KREO 290852Z AUTO 25004KT 01/M11 A3030 RMK AO1 SLP262
T00061111 58002





000
SAUS46 KPQR 290753
MTRREO
METAR KREO 290752Z AUTO 12005KT 02/M11 A3031 RMK AO1 SLP264
T00221106 401720006





000
SAUS46 KPQR 290753
MTRREO
METAR KREO 290752Z AUTO 12005KT 02/M11 A3031 RMK AO1 SLP264
T00221106 401720006





000
SAUS46 KPQR 290653
MTRREO
METAR KREO 290652Z AUTO 19004KT 03/M11 A3032 RMK AO1 SLP269
T00281106





000
SAUS46 KPQR 290653
MTRREO
METAR KREO 290652Z AUTO 19004KT 03/M11 A3032 RMK AO1 SLP269
T00281106





000
SAUS46 KPQR 290553
MTRREO
METAR KREO 290552Z AUTO 08008KT 07/M09 A3031 RMK AO1 SLP262
T00671094 10167 20067 51007





000
SAUS46 KPQR 290553
MTRREO
METAR KREO 290552Z AUTO 08008KT 07/M09 A3031 RMK AO1 SLP262
T00671094 10167 20067 51007





000
SAUS46 KPQR 290453
MTRREO
METAR KREO 290452Z AUTO 08008KT 08/M10 A3030 RMK AO1 SLP259
T00781100





000
SAUS46 KPQR 290453
MTRREO
METAR KREO 290452Z AUTO 08008KT 08/M10 A3030 RMK AO1 SLP259
T00781100





000
SAUS46 KPQR 290353
MTRREO
METAR KREO 290352Z AUTO 07007KT 09/M10 A3030 RMK AO1 SLP259
T00891100





000
SAUS46 KPQR 290353
MTRREO
METAR KREO 290352Z AUTO 07007KT 09/M10 A3030 RMK AO1 SLP259
T00891100





000
SAUS46 KPQR 290253
MTRREO
METAR KREO 290252Z AUTO 05009KT 11/M11 A3029 RMK AO1 SLP253
T01061106 53009





000
SAUS46 KPQR 290253
MTRREO
METAR KREO 290252Z AUTO 05009KT 11/M11 A3029 RMK AO1 SLP253
T01061106 53009





000
SAUS46 KPQR 290153
MTRREO
METAR KREO 290152Z AUTO 04010KT 14/M10 A3027 RMK AO1 SLP243
T01391100





000
SAUS46 KPQR 290153
MTRREO
METAR KREO 290152Z AUTO 04010KT 14/M10 A3027 RMK AO1 SLP243
T01391100





000
SAUS46 KPQR 290053
MTRREO
METAR KREO 290052Z AUTO 04008KT 16/M10 A3027 RMK AO1 SLP240
T01561100





000
SAUS46 KPQR 290053
MTRREO
METAR KREO 290052Z AUTO 04008KT 16/M10 A3027 RMK AO1 SLP240
T01561100





000
SAUS46 KPQR 282353
MTRREO
METAR KREO 282352Z AUTO 03011KT 16/M11 A3026 RMK AO1 SLP226
T01611106 10172 20117 58010





000
SAUS46 KPQR 282353
MTRREO
METAR KREO 282352Z AUTO 03011KT 16/M11 A3026 RMK AO1 SLP226
T01611106 10172 20117 58010





000
SAUS46 KPQR 282253
MTRREO
METAR KREO 282252Z AUTO 02008KT 350V050 17/M11 A3027 RMK AO1 SLP234
T01671111





000
SAUS46 KPQR 282253
MTRREO
METAR KREO 282252Z AUTO 02008KT 350V050 17/M11 A3027 RMK AO1 SLP234
T01671111





000
SAUS46 KPQR 282153
MTRREO
METAR KREO 282152Z AUTO VRB04KT 16/M12 A3028 RMK AO1 SLP237
T01561117





000
SAUS46 KPQR 282153
MTRREO
METAR KREO 282152Z AUTO VRB04KT 16/M12 A3028 RMK AO1 SLP237
T01561117





000
SAUS46 KPQR 282053
MTRREO
METAR KREO 282052Z AUTO 36007KT 330V030 16/M13 A3029 RMK AO1 SLP240
T01561133 58010





000
SAUS46 KPQR 281953
MTRREO
METAR KREO 281952Z AUTO 27010G18KT 15/M14 A3032 RMK AO1 SLP249
T01501139





000
SAUS46 KPQR 281953
MTRREO
METAR KREO 281952Z AUTO 27010G18KT 15/M14 A3032 RMK AO1 SLP249
T01501139





000
SAUS46 KPQR 281853
MTRREO
METAR KREO 281852Z AUTO 32011G15KT 14/M13 A3032 RMK AO1 SLP250
T01391128





000
SAUS46 KPQR 281853
MTRREO
METAR KREO 281852Z AUTO 32011G15KT 14/M13 A3032 RMK AO1 SLP250
T01391128





000
SAUS46 KPQR 281753
MTRREO
METAR KREO 281752Z AUTO 28010KT 260V320 12/M09 A3032 RMK AO1 SLP252
T01221094 10144 20056 51017





000
SAUS46 KPQR 281753
MTRREO
METAR KREO 281752Z AUTO 28010KT 260V320 12/M09 A3032 RMK AO1 SLP252
T01221094 10144 20056 51017





000
SAUS46 KPQR 281653
MTRREO
METAR KREO 281652Z AUTO 34009KT 11/M08 A3032 RMK AO1 SLP250
T01111083





000
SAUS46 KPQR 281653
MTRREO
METAR KREO 281652Z AUTO 34009KT 11/M08 A3032 RMK AO1 SLP250
T01111083





000
SAUS46 KPQR 281553
MTRREO
METAR KREO 281552Z AUTO 33004KT 09/M08 A3030 RMK AO1 SLP245
T00941083





000
SAUS46 KPQR 281453
MTRREO
METAR KREO 281452Z AUTO 28005KT 08/M09 A3027 RMK AO1 SLP237
T00781089 51048





000
SAUS46 KPQR 281453
MTRREO
METAR KREO 281452Z AUTO 28005KT 08/M09 A3027 RMK AO1 SLP237
T00781089 51048





000
SAUS46 KPQR 281353
MTRREO
METAR KREO 281352Z AUTO 31007KT 07/M06 A3024 RMK AO1 PK WND
29026/1327 PRESRR SLP223 T00671061





000
SAUS46 KPQR 281353
MTRREO
METAR KREO 281352Z AUTO 31007KT 07/M06 A3024 RMK AO1 PK WND
29026/1327 PRESRR SLP223 T00671061





000
SAUS46 KPQR 281257
MTRREO
METAR KREO 281252Z AUTO 29013G21KT 08/M02 A3018 RMK AO1 PK WND
26037/1158 SLP199 T00781017





000
SAUS46 KPQR 281257
MTRREO
METAR KREO 281252Z AUTO 29013G21KT 08/M02 A3018 RMK AO1 PK WND
26037/1158 SLP199 T00781017





000
SAUS46 KPQR 281153
MTRREO
METAR KREO 281152Z AUTO 24014G23KT 14/01 A3011 RMK AO1 WSHFT 1129
SLP164 T01440011 10167 20117 53022





000
SAUS46 KPQR 281153
MTRREO
METAR KREO 281152Z AUTO 24014G23KT 14/01 A3011 RMK AO1 WSHFT 1129
SLP164 T01440011 10167 20117 53022





000
SAUS46 KPQR 281148
MTRREO
SPECI KREO 281146Z AUTO 24015G22KT 14/01 A3010 RMK AO1 WSHFT 1129
T01440011





000
SAUS46 KPQR 281148
MTRREO
SPECI KREO 281146Z AUTO 24015G22KT 14/01 A3010 RMK AO1 WSHFT 1129
T01440011





000
SAUS46 KPQR 281053
MTRREO
METAR KREO 281052Z AUTO 21004KT 12/M03 A3008 RMK AO1 SLP155
T01171028





000
SAUS46 KPQR 281053
MTRREO
METAR KREO 281052Z AUTO 21004KT 12/M03 A3008 RMK AO1 SLP155
T01171028





000
SAUS46 KPQR 280953
MTRREO
METAR KREO 280952Z AUTO 21011KT 13/M02 A3007 RMK AO1 SLP150
T01281017





000
SAUS46 KPQR 280853
MTRREO
METAR KREO 280852Z AUTO 22016KT 14/M02 A3004 RMK AO1 SLP139
T01391017 53001





000
SAUS46 KPQR 280753
MTRREO
METAR KREO 280752Z AUTO 22016KT 15/M01 A3003 RMK AO1 SLP137
T01501011 402720011





000
SAUS46 KPQR 280654
MTRREO
METAR KREO 280652Z AUTO 20012KT 14/M03 A3003 RMK AO1 SLP141
T01441028





000
SAUS46 KPQR 280553
MTRREO
METAR KREO 280552Z AUTO 21012KT 17/M04 A3003 RMK AO1 SLP144
T01671044 10261 20161 53011





000
SAUS46 KPQR 280553
MTRREO
METAR KREO 280552Z AUTO 21012KT 17/M04 A3003 RMK AO1 SLP144
T01671044 10261 20161 53011





000
SAUS46 KPQR 280453
MTRREO
METAR KREO 280452Z AUTO 20013KT 17/M06 A3002 RMK AO1 SLP144
T01721061





000
SAUS46 KPQR 280353
MTRREO
METAR KREO 280352Z AUTO 15016KT 19/M06 A3000 RMK AO1 SLP139
T01891056





000
SAUS46 KPQR 280353
MTRREO
METAR KREO 280352Z AUTO 15016KT 19/M06 A3000 RMK AO1 SLP139
T01891056





000
SAUS46 KPQR 280253
MTRREO
METAR KREO 280252Z AUTO 15012KT 19/M03 A3000 RMK AO1 SLP142
T01891033





000
SAUS46 KPQR 280253
MTRREO
METAR KREO 280252Z AUTO 15012KT 19/M03 A3000 RMK AO1 SLP142
T01891033





000
SAUS46 KPQR 280153
MTRREO
METAR KREO 280152Z AUTO 18010KT 23/M02 A3000 RMK AO1 SLP144
T02281022





000
SAUS46 KPQR 280053
MTRREO
METAR KREO 280052Z AUTO 19013G17KT 24/M02 A3001 RMK AO1 SLP144
T02441022





000
SAUS46 KPQR 272353
MTRREO
METAR KREO 272352Z AUTO 20012G17KT 26/M03 A3002 RMK AO1 SLP148
T02561028 10272 20178 56024





000
SAUS46 KPQR 272253
MTRREO
METAR KREO 272252Z AUTO 17010G17KT 150V220 26/M03 A3004 RMK AO1
SLP154 T02611028





000
SAUS46 KPQR 272253
MTRREO
METAR KREO 272252Z AUTO 17010G17KT 150V220 26/M03 A3004 RMK AO1
SLP154 T02611028





000
SAUS46 KPQR 272153
MTRREO
METAR KREO 272152Z AUTO 21008G14KT 26/M01 A3007 RMK AO1 SLP163
T02611006





000
SAUS46 KPQR 272053
MTRREO
METAR KREO 272052Z AUTO 25/M01 A3010 RMK AO1 SLP173 T02501006 58026





000
SAUS46 KPQR 272053
MTRREO
METAR KREO 272052Z AUTO 25/M01 A3010 RMK AO1 SLP173 T02501006 58026





000
SAUS46 KPQR 271953
MTRREO
METAR KREO 271952Z AUTO VRB06KT 24/01 A3014 RMK AO1 SLP188 T02390006





000
SAUS46 KPQR 271953
MTRREO
METAR KREO 271952Z AUTO VRB06KT 24/01 A3014 RMK AO1 SLP188 T02390006





000
SAUS46 KPQR 271853
MTRREO
METAR KREO 271852Z AUTO 00000KT 21/02 A3017 RMK AO1 SLP201 T02110017





000
SAUS46 KPQR 271853
MTRREO
METAR KREO 271852Z AUTO 00000KT 21/02 A3017 RMK AO1 SLP201 T02110017





000
SAUS46 KPQR 271753
MTRREO
METAR KREO 271752Z AUTO 07004KT 17/02 A3019 RMK AO1 SLP210 T01720017
10172 20011 58008





000
SAUS46 KPQR 271753
MTRREO
METAR KREO 271752Z AUTO 07004KT 17/02 A3019 RMK AO1 SLP210 T01720017
10172 20011 58008





000
SAUS46 KPQR 271653
MTRREO
METAR KREO 271652Z AUTO 03003KT 14/02 A3021 RMK AO1 SLP219 T01390017





000
SAUS46 KPQR 271653
MTRREO
METAR KREO 271652Z AUTO 03003KT 14/02 A3021 RMK AO1 SLP219 T01390017





000
SAUS46 KPQR 271553
MTRREO
METAR KREO 271552Z AUTO VRB03KT 11/02 A3021 RMK AO1 SLP220 T01060017





000
SAUS46 KPQR 271453
MTRREO
METAR KREO 271452Z AUTO 00000KT 07/00 A3022 RMK AO1 SLP227 T00670000
53001





000
SAUS46 KPQR 271353
MTRREO
METAR KREO 271352Z AUTO 13003KT 02/M03 A3022 RMK AO1 SLP225
T00221028





000
SAUS46 KPQR 271258
MTRREO
METAR KREO 271252Z AUTO 17004KT 03/M02 A3021 RMK AO1 SLP222
T00281022





000
SAUS46 KPQR 271258
MTRREO
METAR KREO 271252Z AUTO 17004KT 03/M02 A3021 RMK AO1 SLP222
T00281022





000
SAUS46 KPQR 271153
MTRREO
METAR KREO 271152Z AUTO 15007KT 03/M02 A3021 RMK AO1 SLP221
T00281022 10100 20028 58009





000
SAUS46 KPQR 271153
MTRREO
METAR KREO 271152Z AUTO 15007KT 03/M02 A3021 RMK AO1 SLP221
T00281022 10100 20028 58009





000
SAUS46 KPQR 271053
MTRREO
METAR KREO 271052Z AUTO 15006KT 03/M02 A3023 RMK AO1 SLP227
T00281022





000
SAUS46 KPQR 271053
MTRREO
METAR KREO 271052Z AUTO 15006KT 03/M02 A3023 RMK AO1 SLP227
T00281022





000
SAUS46 KPQR 270953
MTRREO
METAR KREO 270952Z AUTO 12004KT 04/M02 A3024 RMK AO1 SLP228
T00391017





000
SAUS46 KPQR 270853
MTRREO
METAR KREO 270852Z AUTO 12005KT 06/M01 A3025 RMK AO1 SLP231
T00561006 56003





000
SAUS46 KPQR 270753
MTRREO
METAR KREO 270752Z AUTO 13003KT 05/M02 A3025 RMK AO1 SLP235
T00501017 402171011





000
SAUS46 KPQR 270653
MTRREO
METAR KREO 270652Z AUTO 07003KT 06/M01 A3025 RMK AO1 SLP238
T00561011





000
SAUS46 KPQR 270653
MTRREO
METAR KREO 270652Z AUTO 07003KT 06/M01 A3025 RMK AO1 SLP238
T00561011





000
SAUS46 KPQR 270553
MTRREO
METAR KREO 270552Z AUTO 00000KT 08/M01 A3026 RMK AO1 SLP240
T00781006 10217 20067 51005





000
SAUS46 KPQR 270553
MTRREO
METAR KREO 270552Z AUTO 00000KT 08/M01 A3026 RMK AO1 SLP240
T00781006 10217 20067 51005





000
SAUS46 KPQR 270453
MTRREO
METAR KREO 270452Z AUTO 00000KT 09/M01 A3026 RMK AO1 SLP241
T00941006





000
SAUS46 KPQR 270353
MTRREO
METAR KREO 270352Z AUTO 08007KT 13/01 A3025 RMK AO1 SLP237 T01330011





000
SAUS46 KPQR 270353
MTRREO
METAR KREO 270352Z AUTO 08007KT 13/01 A3025 RMK AO1 SLP237 T01330011





000
SAUS46 KPQR 270253
MTRREO
METAR KREO 270252Z AUTO 06008KT 13/00 A3024 RMK AO1 SLP238 T01330000
55002





000
SAUS46 KPQR 270253
MTRREO
METAR KREO 270252Z AUTO 06008KT 13/00 A3024 RMK AO1 SLP238 T01330000
55002





000
SAUS46 KPQR 270153
MTRREO
METAR KREO 270152Z AUTO 04009KT 18/01 A3023 RMK AO1 SLP236 T01830006





000
SAUS46 KPQR 270153
MTRREO
METAR KREO 270152Z AUTO 04009KT 18/01 A3023 RMK AO1 SLP236 T01830006





000
SAUS46 KPQR 270053
MTRREO
METAR KREO 270052Z AUTO 04007KT 21/00 A3024 RMK AO1 SLP235 T02060000





000
SAUS46 KPQR 270053
MTRREO
METAR KREO 270052Z AUTO 04007KT 21/00 A3024 RMK AO1 SLP235 T02060000





000
SAUS46 KPQR 262353
MTRREO
METAR KREO 262352Z AUTO VRB04KT 21/00 A3025 RMK AO1 SLP236 T02110000
10211 20128 56019





000
SAUS46 KPQR 262353
MTRREO
METAR KREO 262352Z AUTO VRB04KT 21/00 A3025 RMK AO1 SLP236 T02110000
10211 20128 56019





000
SAUS46 KPQR 262253
MTRREO
METAR KREO 262252Z AUTO 21003KT 21/00 A3026 RMK AO1 SLP240 T02060000





000
SAUS46 KPQR 262253
MTRREO
METAR KREO 262252Z AUTO 21003KT 21/00 A3026 RMK AO1 SLP240 T02060000





000
SAUS46 KPQR 262153
MTRREO
METAR KREO 262152Z AUTO VRB03KT 20/00 A3028 RMK AO1 SLP246 T02000000





000
SAUS46 KPQR 262053
MTRREO
METAR KREO 262052Z AUTO VRB05KT 19/01 A3031 RMK AO1 SLP256 T01890006
58023





000
SAUS46 KPQR 261953
MTRREO
METAR KREO 261952Z AUTO 00000KT 17/01 A3034 RMK AO1 SLP269 T01720006





000
SAUS46 KPQR 261953
MTRREO
METAR KREO 261952Z AUTO 00000KT 17/01 A3034 RMK AO1 SLP269 T01720006





000
SAUS46 KPQR 261853
MTRREO
METAR KREO 261852Z AUTO 00000KT 15/01 A3037 RMK AO1 SLP278 T01500006





000
SAUS46 KPQR 261853
MTRREO
METAR KREO 261852Z AUTO 00000KT 15/01 A3037 RMK AO1 SLP278 T01500006





000
SAUS46 KPQR 261753
MTRREO
METAR KREO 261752Z AUTO 35004KT 13/01 A3039 RMK AO1 SLP285 T01330006
10133 21011 58002





000
SAUS46 KPQR 261653
MTRREO
METAR KREO 261652Z AUTO 00000KT 10/01 A3040 RMK AO1 SLP292 T01000011





    US Dept of Commerce
    National Oceanic and Atmospheric Administration
    National Weather Service
    1325 East West Highway
    Silver Spring, MD 20910
    Page Author: NWS Internet Services Team
Disclaimer
Information Quality
Credits
Glossary
Privacy Policy
Freedom of Information Act (FOIA)
About Us
Career Opportunities